Time,TemperatureF,DewpointF,PressureIn,WindDirection,WindDirectionDegrees,WindSpeedMPH,WindSpeedGustMPH,Humidity,HourlyPrecipIn,Conditions,Clouds,dailyrainin,SoftwareType,DateUTC
2013-01-25 00:14:00,12.5,-2.0,30.44,WNW,300,5.0,8.0,52,0.00,,,0.00,weatherlink.com 1.10,2013-01-25 05:14:00,
2013-01-25 00:29:00,12.3,-2.0,30.44,NW,315,4.0,14.0,53,0.00,,,0.00,weatherlink.com 1.10,2013-01-25 05:29:00,
2013-01-25 00:44:00,12.0,-2.0,30.44,West,266,2.0,9.0,53,0.00,,,0.00,weatherlink.com 1.10,2013-01-25 05:44:00,
2013-01-25 00:59:00,11.7,-2.0,30.44,SW,232,6.0,12.0,55,0.00,,,0.00,weatherlink.com 1.10,2013-01-25 05:59:00,
2013-01-25 01:14:00,11.6,-2.0,30.45,West,279,2.0,10.0,55,0.00,,,0.00,weatherlink.com 1.10,2013-01-25 06:14:00,
2013-01-25 01:29:00,11.3,-2.0,30.44,WNW,290,2.0,7.0,56,0.00,,,0.00,weatherlink.com 1.10,2013-01-25 06:29:00,
2013-01-25 01:44:00,10.9,-1.0,30.44,West,271,4.0,8.0,58,0.00,,,0.00,weatherlink.com 1.10,2013-01-25 06:44:00,
2013-01-25 01:59:00,10.5,-1.0,30.45,West,275,3.0,5.0,60,0.00,,,0.00,weatherlink.com 1.10,2013-01-25 06:59:00,
2013-01-25 02:14:00,10.1,-1.0,30.45,West,281,0.0,5.0,61,0.00,,,0.00,weatherlink.com 1.10,2013-01-25 07:14:00,
2013-01-25 02:29:00,9.9,-1.0,30.45,WNW,289,0.0,5.0,63,0.00,,,0.00,weatherlink.com 1.10,2013-01-25 07:29:00,
2013-01-25 02:45:00,9.7,0.0,30.44,West,277,2.0,6.0,64,0.00,,,0.00,weatherlink.com 1.10,2013-01-25 07:45:00,
2013-01-25 03:00:00,9.5,0.0,30.43,NW,311,1.0,4.0,65,0.00,,,0.00,weatherlink.com 1.10,2013-01-25 08:00:00,
2013-01-25 03:15:00,9.4,0.0,30.43,West,261,2.0,4.0,66,0.00,,,0.00,weatherlink.com 1.10,2013-01-25 08:15:00,
2013-01-25 03:30:00,9.2,0.0,30.43,West,272,0.0,2.0,67,0.00,,,0.00,weatherlink.com 1.10,2013-01-25 08:30:00,
2013-01-25 03:45:00,9.0,0.0,30.43,West,263,1.0,3.0,67,0.00,,,0.00,weatherlink.com 1.10,2013-01-25 08:45:00,
2013-01-25 04:00:00,8.8,0.0,30.43,West,263,1.0,1.0,68,0.00,,,0.00,weatherlink.com 1.10,2013-01-25 09:00:00,
2013-01-25 04:15:00,8.6,0.0,30.42,West,261,0.0,2.0,69,0.00,,,0.00,weatherlink.com 1.10,2013-01-25 09:15:00,
2013-01-25 04:30:00,8.7,1.0,30.42,West,262,0.0,2.0,70,0.00,,,0.00,weatherlink.com 1.10,2013-01-25 09:30:00,
2013-01-25 04:45:00,8.6,1.0,30.43,West,265,1.0,2.0,71,0.00,,,0.00,weatherlink.com 1.10,2013-01-25 09:45:00,
2013-01-25 05:00:00,8.4,1.0,30.43,West,265,0.0,1.0,71,0.00,,,0.00,weatherlink.com 1.10,2013-01-25 10:00:00,
2013-01-25 05:15:00,8.5,2.0,30.44,WSW,238,3.0,4.0,74,0.00,,,0.00,weatherlink.com 1.10,2013-01-25 10:15:00,
2013-01-25 05:30:00,8.8,2.0,30.44,West,267,2.0,3.0,75,0.00,,,0.00,weatherlink.com 1.10,2013-01-25 10:30:00,
2013-01-25 05:45:00,9.3,3.0,30.43,NW,316,0.0,2.0,75,0.00,,,0.00,weatherlink.com 1.10,2013-01-25 10:45:00,
2013-01-25 06:01:00,9.3,3.0,30.42,NW,317,1.0,2.0,74,0.00,,,0.00,weatherlink.com 1.10,2013-01-25 11:01:00,
2013-01-25 06:16:00,9.5,4.0,30.42,WNW,287,1.0,1.0,77,0.00,,,0.00,weatherlink.com 1.10,2013-01-25 11:16:00,
2013-01-25 06:31:00,9.5,3.0,30.42,South,186,0.0,3.0,74,0.00,,,0.00,weatherlink.com 1.10,2013-01-25 11:31:00,
2013-01-25 06:46:00,9.8,3.0,30.42,SSW,200,0.0,2.0,75,0.00,,,0.00,weatherlink.com 1.10,2013-01-25 11:46:00,
2013-01-25 07:01:00,10.3,4.0,30.43,West,271,1.0,2.0,75,0.00,,,0.00,weatherlink.com 1.10,2013-01-25 12:01:00,
2013-01-25 07:16:00,10.6,4.0,30.41,West,281,1.0,5.0,73,0.00,,,0.00,weatherlink.com 1.10,2013-01-25 12:16:00,
2013-01-25 07:31:00,10.9,3.0,30.41,NNW,334,2.0,5.0,71,0.00,,,0.00,weatherlink.com 1.10,2013-01-25 12:31:00,
2013-01-25 07:46:00,11.2,4.0,30.41,West,281,1.0,6.0,74,0.00,,,0.00,weatherlink.com 1.10,2013-01-25 12:46:00,
2013-01-25 08:01:00,11.4,4.0,30.41,NW,311,0.0,2.0,73,0.00,,,0.00,weatherlink.com 1.10,2013-01-25 13:01:00,
2013-01-25 08:16:00,11.7,4.0,30.41,ESE,103,1.0,6.0,70,0.00,,,0.00,weatherlink.com 1.10,2013-01-25 13:16:00,
2013-01-25 08:31:00,11.9,4.0,30.41,West,263,3.0,6.0,69,0.00,,,0.00,weatherlink.com 1.10,2013-01-25 13:31:00,
2013-01-25 08:46:00,12.3,4.0,30.42,West,268,0.0,4.0,69,0.00,,,0.00,weatherlink.com 1.10,2013-01-25 13:46:00,
2013-01-25 09:01:00,12.7,4.0,30.42,WSW,239,5.0,7.0,69,0.00,,,0.00,weatherlink.com 1.10,2013-01-25 14:01:00,
2013-01-25 09:16:00,13.0,4.0,30.41,West,267,5.0,8.0,68,0.00,,,0.00,weatherlink.com 1.10,2013-01-25 14:16:00,
2013-01-25 09:31:00,13.5,4.0,30.41,WNW,292,0.0,7.0,67,0.00,,,0.00,weatherlink.com 1.10,2013-01-25 14:31:00,
2013-01-25 09:46:00,13.9,4.0,30.41,WNW,293,3.0,10.0,66,0.00,,,0.00,weatherlink.com 1.10,2013-01-25 14:46:00,
2013-01-25 10:01:00,14.6,5.0,30.41,SW,231,4.0,5.0,65,0.00,,,0.00,weatherlink.com 1.10,2013-01-25 15:01:00,
2013-01-25 10:16:00,14.9,5.0,30.41,NNE,18,2.0,6.0,65,0.00,,,0.00,weatherlink.com 1.10,2013-01-25 15:16:00,
2013-01-25 10:31:00,15.1,4.0,30.39,West,281,4.0,5.0,62,0.00,,,0.00,weatherlink.com 1.10,2013-01-25 15:31:00,
2013-01-25 10:46:00,15.3,4.0,30.38,NNE,19,0.0,6.0,62,0.00,,,0.00,weatherlink.com 1.10,2013-01-25 15:46:00,
2013-01-25 11:01:00,15.9,5.0,30.36,West,259,2.0,5.0,63,0.00,,,0.00,weatherlink.com 1.10,2013-01-25 16:01:00,
2013-01-25 11:16:00,15.9,4.0,30.35,NW,314,1.0,5.0,60,0.00,,,0.00,weatherlink.com 1.10,2013-01-25 16:16:00,
2013-01-25 11:31:00,16.3,5.0,30.34,ESE,113,1.0,3.0,60,0.00,,,0.00,weatherlink.com 1.10,2013-01-25 16:31:00,
2013-01-25 11:46:00,16.8,4.0,30.33,WSW,254,3.0,4.0,58,0.00,,,0.00,weatherlink.com 1.10,2013-01-25 16:46:00,
2013-01-25 12:02:00,17.5,5.0,30.32,SW,232,1.0,6.0,57,0.00,,,0.00,weatherlink.com 1.10,2013-01-25 17:02:00,
2013-01-25 12:17:00,18.1,4.0,30.31,NNW,346,2.0,3.0,55,0.00,,,0.00,weatherlink.com 1.10,2013-01-25 17:17:00,
2013-01-25 12:32:00,18.1,4.0,30.31,WSW,249,4.0,5.0,55,0.00,,,0.00,weatherlink.com 1.10,2013-01-25 17:32:00,
2013-01-25 12:47:00,18.2,5.0,30.29,WSW,240,5.0,5.0,56,0.00,,,0.00,weatherlink.com 1.10,2013-01-25 17:47:00,
2013-01-25 13:02:00,18.4,5.0,30.27,West,266,3.0,5.0,56,0.00,,,0.00,weatherlink.com 1.10,2013-01-25 18:02:00,
2013-01-25 13:17:00,18.4,5.0,30.26,West,271,0.0,6.0,55,0.00,,,0.00,weatherlink.com 1.10,2013-01-25 18:17:00,
2013-01-25 13:32:00,18.4,5.0,30.25,WNW,301,0.0,4.0,55,0.00,,,0.00,weatherlink.com 1.10,2013-01-25 18:32:00,
2013-01-25 13:47:00,19.3,5.0,30.25,WSW,241,2.0,4.0,54,0.00,,,0.00,weatherlink.com 1.10,2013-01-25 18:47:00,
2013-01-25 14:02:00,19.8,5.0,30.24,West,264,3.0,7.0,54,0.00,,,0.00,weatherlink.com 1.10,2013-01-25 19:02:00,
2013-01-25 14:17:00,20.3,6.0,30.23,WNW,289,1.0,5.0,54,0.00,,,0.00,weatherlink.com 1.10,2013-01-25 19:17:00,
2013-01-25 14:32:00,20.4,6.0,30.22,WNW,292,3.0,6.0,55,0.00,,,0.00,weatherlink.com 1.10,2013-01-25 19:32:00,
2013-01-25 14:47:00,20.2,7.0,30.20,West,265,2.0,4.0,57,0.00,,,0.00,weatherlink.com 1.10,2013-01-25 19:47:00,
2013-01-25 15:02:00,20.1,6.0,30.20,West,260,2.0,4.0,55,0.00,,,0.00,weatherlink.com 1.10,2013-01-25 20:02:00,
2013-01-25 15:17:00,20.1,7.0,30.20,WSW,256,3.0,4.0,56,0.00,,,0.00,weatherlink.com 1.10,2013-01-25 20:17:00,
2013-01-25 15:32:00,20.2,5.0,30.20,South,171,5.0,6.0,51,0.00,,,0.00,weatherlink.com 1.10,2013-01-25 20:32:00,
2013-01-25 15:47:00,20.2,5.0,30.19,SW,221,0.0,5.0,51,0.00,,,0.00,weatherlink.com 1.10,2013-01-25 20:47:00,
2013-01-25 16:02:00,20.3,4.0,30.18,South,185,2.0,3.0,50,0.00,,,0.00,weatherlink.com 1.10,2013-01-25 21:02:00,
2013-01-25 16:17:00,20.3,4.0,30.18,WSW,246,3.0,5.0,50,0.00,,,0.00,weatherlink.com 1.10,2013-01-25 21:17:00,
2013-01-25 16:32:00,20.0,8.0,30.18,South,180,1.0,5.0,60,0.00,,,0.00,weatherlink.com 1.10,2013-01-25 21:32:00,
2013-01-25 16:47:00,19.1,10.0,30.17,SSW,213,0.0,5.0,68,0.00,,,0.00,weatherlink.com 1.10,2013-01-25 21:47:00,
2013-01-25 17:02:00,18.6,11.0,30.16,SW,214,0.0,2.0,73,0.00,,,0.00,weatherlink.com 1.10,2013-01-25 22:02:00,
2013-01-25 17:17:00,18.4,12.0,30.15,SSE,164,0.0,1.0,76,0.00,,,0.00,weatherlink.com 1.10,2013-01-25 22:17:00,
2013-01-25 17:32:00,18.0,12.0,30.15,South,171,0.0,2.0,77,0.00,,,0.00,weatherlink.com 1.10,2013-01-25 22:32:00,
2013-01-25 17:47:00,17.7,12.0,30.14,SSW,193,3.0,4.0,79,0.00,,,0.00,weatherlink.com 1.10,2013-01-25 22:47:00,
2013-01-25 18:02:00,17.5,12.0,30.14,SW,217,2.0,4.0,80,0.00,,,0.00,weatherlink.com 1.10,2013-01-25 23:02:00,
2013-01-25 18:17:00,17.3,12.0,30.14,SSW,212,2.0,4.0,81,0.00,,,0.00,weatherlink.com 1.10,2013-01-25 23:17:00,
2013-01-25 18:32:00,17.2,13.0,30.14,WSW,242,0.0,3.0,83,0.00,,,0.00,weatherlink.com 1.10,2013-01-25 23:32:00,
2013-01-25 18:47:00,17.1,13.0,30.14,WSW,254,4.0,4.0,85,0.00,,,0.00,weatherlink.com 1.10,2013-01-25 23:47:00,
2013-01-25 19:02:00,16.9,13.0,30.13,WSW,250,1.0,6.0,86,0.00,,,0.00,weatherlink.com 1.10,2013-01-26 00:02:00,
2013-01-25 19:17:00,16.7,13.0,30.12,WSW,250,0.0,3.0,86,0.00,,,0.00,weatherlink.com 1.10,2013-01-26 00:17:00,
2013-01-25 19:33:00,16.7,14.0,30.12,WSW,252,0.0,3.0,87,0.00,,,0.00,weatherlink.com 1.10,2013-01-26 00:33:00,
2013-01-25 19:48:00,16.8,14.0,30.11,WSW,252,2.0,2.0,87,0.00,,,0.00,weatherlink.com 1.10,2013-01-26 00:48:00,
2013-01-25 20:03:00,16.8,14.0,30.11,WSW,252,0.0,2.0,88,0.00,,,0.00,weatherlink.com 1.10,2013-01-26 01:03:00,
2013-01-25 20:18:00,16.4,13.0,30.10,WSW,252,0.0,0.0,87,0.00,,,0.00,weatherlink.com 1.10,2013-01-26 01:18:00,
2013-01-25 20:33:00,15.9,13.0,30.10,WSW,252,0.0,0.0,87,0.00,,,0.00,weatherlink.com 1.10,2013-01-26 01:33:00,
2013-01-25 21:03:00,14.6,11.0,30.09,WSW,252,0.0,0.0,87,0.00,,,0.00,weatherlink.com 1.10,2013-01-26 02:03:00,
2013-01-25 21:18:00,14.1,11.0,30.08,WSW,252,0.0,1.0,87,0.00,,,0.00,weatherlink.com 1.10,2013-01-26 02:18:00,
2013-01-25 21:33:00,13.5,10.0,30.08,WSW,252,0.0,0.0,87,0.00,,,0.00,weatherlink.com 1.10,2013-01-26 02:33:00,
2013-01-25 21:48:00,13.5,11.0,30.07,WSW,252,0.0,0.0,88,0.00,,,0.00,weatherlink.com 1.10,2013-01-26 02:48:00,
2013-01-25 22:03:00,12.6,10.0,30.07,WSW,252,0.0,1.0,87,0.00,,,0.00,weatherlink.com 1.10,2013-01-26 03:03:00,
2013-01-25 22:18:00,11.9,9.0,30.07,WSW,252,0.0,1.0,87,0.00,,,0.00,weatherlink.com 1.10,2013-01-26 03:18:00,
2013-01-25 22:33:00,11.7,9.0,30.06,WSW,252,0.0,0.0,88,0.00,,,0.00,weatherlink.com 1.10,2013-01-26 03:33:00,
2013-01-25 22:48:00,11.7,9.0,30.06,WSW,252,0.0,0.0,88,0.00,,,0.00,weatherlink.com 1.10,2013-01-26 03:48:00,
2013-01-25 23:03:00,11.2,8.0,30.06,WSW,252,0.0,2.0,88,0.00,,,0.00,weatherlink.com 1.10,2013-01-26 04:03:00,
2013-01-25 23:18:00,11.1,8.0,30.07,WSW,252,0.0,1.0,88,0.00,,,0.00,weatherlink.com 1.10,2013-01-26 04:18:00,
2013-01-25 23:33:00,11.0,8.0,30.07,WSW,252,0.0,0.0,88,0.00,,,0.00,weatherlink.com 1.10,2013-01-26 04:33:00,
2013-01-25 23:48:00,11.3,9.0,30.08,WSW,252,0.0,0.0,89,0.00,,,0.00,weatherlink.com 1.10,2013-01-26 04:48:00,